createdAt,value
2023-04-15T00:03:11.816Z,99595.79
2023-04-15T00:08:15.522Z,99596.85
2023-04-15T00:13:18.308Z,99601.08
2023-04-15T00:18:21.049Z,99599.52
2023-04-15T00:23:23.808Z,99596.09
2023-04-15T00:28:27.678Z,99588.02
2023-04-15T00:33:30.435Z,99585.91
2023-04-15T00:38:33.486Z,99583.24
2023-04-15T00:43:36.665Z,99579.84
2023-04-15T00:48:39.876Z,99587.15
2023-04-15T00:53:43.832Z,99592.84
2023-04-15T00:58:46.590Z,99588.02
2023-04-15T01:03:51.921Z,99590.09
2023-04-15T01:08:55.980Z,99592.48
2023-04-15T01:13:59.219Z,99586.73
2023-04-15T01:19:02.447Z,99588.34
2023-04-15T01:24:11.320Z,99588.52
2023-04-15T01:29:14.200Z,99584.96
2023-04-15T01:34:17.083Z,99583.92
2023-04-15T01:39:19.860Z,99580.73
2023-04-15T01:44:22.793Z,99581.03
2023-04-15T01:49:25.459Z,99576.02
2023-04-15T01:54:28.167Z,99571.90
2023-04-15T01:59:31.626Z,99572.81
2023-04-15T02:04:34.368Z,99575.80
2023-04-15T02:09:37.033Z,99580.90
2023-04-15T02:14:39.821Z,99579.77
2023-04-15T02:19:43.240Z,99580.19
2023-04-15T02:24:47.235Z,99583.70
2023-04-15T02:29:51.372Z,99584.55
2023-04-15T02:34:54.174Z,99584.98
2023-04-15T02:39:57.387Z,99585.14
2023-04-15T02:45:00.184Z,99582.50
2023-04-15T02:50:09.581Z,99585.95
2023-04-15T02:55:12.883Z,99585.16
2023-04-15T03:00:16.374Z,99587.97
2023-04-15T03:05:19.141Z,99585.67
2023-04-15T03:10:22.312Z,99587.71
2023-04-15T03:15:25.156Z,99591.26
2023-04-15T03:20:28.830Z,99595.05
2023-04-15T03:25:31.601Z,99599.04
2023-04-15T03:30:34.358Z,99602.13
2023-04-15T03:35:37.107Z,99596.77
2023-04-15T03:40:43.421Z,99600.11
2023-04-15T03:45:46.283Z,99599.79
2023-04-15T03:50:49.211Z,99595.25
2023-04-15T03:55:52.412Z,99597.77
2023-04-15T04:00:55.623Z,99599.48
2023-04-15T04:05:58.425Z,99601.64
2023-04-15T04:11:01.613Z,99601.30
2023-04-15T04:16:05.173Z,99599.67
2023-04-15T04:21:08.584Z,99600.29
2023-04-15T04:26:11.471Z,99598.67
2023-04-15T04:31:14.382Z,99598.23
2023-04-15T04:36:17.093Z,99602.10
2023-04-15T04:41:19.753Z,99598.86
2023-04-15T04:46:24.028Z,99602.40
2023-04-15T04:51:26.864Z,99606.77
2023-04-15T04:56:29.617Z,99606.16
2023-04-15T05:01:32.476Z,99609.69
2023-04-15T05:06:36.819Z,99610.90
2023-04-15T05:11:39.532Z,99616.06
2023-04-15T05:16:42.397Z,99616.73
2023-04-15T05:21:45.463Z,99622.88
2023-04-15T05:26:48.757Z,99620.75
2023-04-15T05:31:52.017Z,99620.20
2023-04-15T05:36:54.793Z,99616.77
2023-04-15T05:41:57.804Z,99619.60
2023-04-15T05:47:01.013Z,99623.97
2023-04-15T05:52:04.032Z,99630.03
2023-04-15T05:57:07.642Z,99632.48
2023-04-15T06:02:10.790Z,99635.78
2023-04-15T06:07:13.754Z,99632.09
2023-04-15T06:12:17.126Z,99633.96
2023-04-15T06:17:19.822Z,99634.59
2023-04-15T06:22:23.803Z,99640.83
2023-04-15T06:27:26.489Z,99645.08
2023-04-15T06:32:29.525Z,99646.64
2023-04-15T06:37:32.852Z,99652.96
2023-04-15T06:42:36.841Z,99650.77
2023-04-15T06:47:39.700Z,99652.94
2023-04-15T06:52:42.552Z,99656.58
2023-04-15T06:57:45.561Z,99658.57
2023-04-15T07:02:48.753Z,99663.23
2023-04-15T07:07:51.576Z,99662.08
2023-04-15T07:12:54.371Z,99663.73
2023-04-15T07:17:57.218Z,99668.48
2023-04-15T07:23:00.093Z,99671.94
2023-04-15T07:28:03.046Z,99672.58
2023-04-15T07:33:05.795Z,99676.70
2023-04-15T07:38:08.542Z,99681.95
2023-04-15T07:43:11.217Z,99680.99
2023-04-15T07:48:14.011Z,99682.56
2023-04-15T07:53:16.949Z,99682.31
2023-04-15T07:58:19.689Z,99687.96
2023-04-15T08:03:24.132Z,99690.09
2023-04-15T08:08:27.364Z,99692.56
2023-04-15T08:13:30.160Z,99689.67
2023-04-15T08:18:33.257Z,99689.95
2023-04-15T08:23:36.322Z,99691.07
2023-04-15T08:28:40.805Z,99694.19
2023-04-15T08:33:43.975Z,99690.23
2023-04-15T08:38:47.408Z,99696.16
2023-04-15T08:44:09.131Z,99695.16
2023-04-15T08:49:14.927Z,99695.42
2023-04-15T08:54:19.164Z,99693.05
2023-04-15T08:59:22.276Z,99698.19
2023-04-15T09:04:25.012Z,99694.84
2023-04-15T09:09:28.037Z,99700.74
2023-04-15T09:14:32.757Z,99699.17
2023-04-15T09:19:35.557Z,99700.34
2023-04-15T09:24:41.129Z,99697.77
2023-04-15T09:29:43.819Z,99698.27
2023-04-15T09:34:48.278Z,99702.21
2023-04-15T09:39:53.763Z,99709.67
2023-04-15T09:44:56.824Z,99709.14
2023-04-15T09:50:01.820Z,99711.39
2023-04-15T09:55:06.970Z,99716.08
2023-04-15T10:00:11.471Z,99719.11
2023-04-15T10:05:18.020Z,99722.14
2023-04-15T10:10:21.578Z,99725.88
2023-04-15T10:15:26.144Z,99731.75
2023-04-15T10:20:30.298Z,99728.39
2023-04-15T10:25:33.707Z,99730.81
2023-04-15T10:30:37.244Z,99727.80
2023-04-15T10:35:40.885Z,99725.98
2023-04-15T10:40:45.489Z,99725.52
2023-04-15T10:45:48.787Z,99728.39
2023-04-15T10:50:58.458Z,99733.58
2023-04-15T10:56:01.244Z,99735.48
2023-04-15T11:01:04.586Z,99734.54
2023-04-15T11:06:07.673Z,99733.66
2023-04-15T11:11:10.468Z,99730.29
2023-04-15T11:16:13.638Z,99736.80
2023-04-15T11:21:16.605Z,99736.77
2023-04-15T11:26:19.357Z,99734.55
2023-04-15T11:31:24.160Z,99742.61
2023-04-15T11:36:28.940Z,99741.43
2023-04-15T11:41:31.884Z,99743.14
2023-04-15T11:46:34.584Z,99751.08
2023-04-15T11:51:38.014Z,99756.55
2023-04-15T11:56:40.835Z,99758.39
2023-04-15T12:01:46.319Z,99755.89
2023-04-15T12:06:49.502Z,99759.04
2023-04-15T12:11:53.958Z,99761.44
2023-04-15T12:17:05.433Z,99764.48
2023-04-15T12:22:17.843Z,99769.34
2023-04-15T12:27:21.317Z,99767.81
2023-04-15T12:32:24.051Z,99767.91
2023-04-15T12:37:26.876Z,99772.33
2023-04-15T12:42:29.574Z,99775.44
2023-04-15T12:47:32.357Z,99779.36
2023-04-15T12:52:35.371Z,99780.83
2023-04-15T12:57:38.085Z,99784.09
2023-04-15T13:02:40.957Z,99783.51
2023-04-15T13:07:43.957Z,99779.45
2023-04-15T13:12:48.120Z,99783.88
2023-04-15T13:17:51.254Z,99786.72
2023-04-15T13:22:54.451Z,99789.63
2023-04-15T13:27:57.776Z,99791.89
2023-04-15T13:33:00.899Z,99796.35
2023-04-15T13:38:03.805Z,99802.36
2023-04-15T13:43:06.576Z,99801.20
2023-04-15T13:48:09.887Z,99802.85
2023-04-15T13:53:13.137Z,99806.98
2023-04-15T13:58:16.445Z,99806.68
2023-04-15T14:03:19.330Z,99810.58
2023-04-15T14:08:22.927Z,99811.94
2023-04-15T14:13:25.741Z,99816.73
2023-04-15T14:18:30.004Z,99818.63
2023-04-15T14:23:32.992Z,99821.58
2023-04-15T14:28:35.860Z,99819.64
2023-04-15T14:33:38.583Z,99827.84
2023-04-15T14:38:41.331Z,99829.81
2023-04-15T14:43:44.194Z,99835.61
2023-04-15T14:48:47.074Z,99840.48
2023-04-15T14:53:49.790Z,99852.95
2023-04-15T14:58:54.160Z,99856.21
2023-04-15T15:03:56.946Z,99861.91
2023-04-15T15:09:01.621Z,99864.27
2023-04-15T15:14:04.696Z,99871.46
2023-04-15T15:19:07.617Z,99873.30
2023-04-15T15:24:10.903Z,99875.46
2023-04-15T15:29:13.696Z,99880.59
2023-04-15T15:34:17.148Z,99890.11
2023-04-15T15:39:19.937Z,99892.25
2023-04-15T15:44:22.724Z,99899.90
2023-04-15T15:49:26.144Z,99900.88
2023-04-15T15:54:29.289Z,99903.00
2023-04-15T15:59:33.779Z,99908.48
2023-04-15T16:04:37.342Z,99910.41
2023-04-15T16:09:41.159Z,99916.30
2023-04-15T16:14:43.938Z,99921.17
2023-04-15T16:19:58.723Z,99924.14
2023-04-15T16:25:03.889Z,99927.48
2023-04-15T16:30:07.634Z,99938.05
2023-04-15T16:35:11.763Z,99942.21
2023-04-15T16:40:15.211Z,99949.11
2023-04-15T16:45:18.547Z,99953.98
2023-04-15T16:50:21.268Z,99959.92
2023-04-15T16:55:24.619Z,99969.02
2023-04-15T17:00:27.453Z,99977.83
2023-04-15T17:05:33.501Z,99981.36
2023-04-15T17:10:36.466Z,99986.30
2023-04-15T17:15:40.781Z,99993.02
2023-04-15T17:20:43.710Z,99998.36
2023-04-15T17:25:46.508Z,100006.42
2023-04-15T17:30:49.354Z,100009.05
2023-04-15T17:35:52.238Z,100014.11
2023-04-15T17:40:55.425Z,100017.41
2023-04-15T17:45:58.799Z,100022.35
2023-04-15T17:51:01.948Z,100033.84
2023-04-15T17:56:04.833Z,100045.17
2023-04-15T18:01:07.780Z,100048.86
2023-04-15T18:06:11.906Z,100055.01
2023-04-15T18:11:14.669Z,100061.73
2023-04-15T18:16:17.629Z,100067.92
2023-04-15T18:21:20.820Z,100069.47
2023-04-15T18:26:23.649Z,100075.80
2023-04-15T18:31:26.444Z,100081.04
2023-04-15T18:36:29.761Z,100087.08
2023-04-15T18:41:32.541Z,100097.95
2023-04-15T18:46:35.539Z,100105.38
2023-04-15T18:51:38.214Z,100107.91
2023-04-15T18:56:41.640Z,100111.30
2023-04-15T19:01:44.341Z,100110.02
2023-04-15T19:06:47.892Z,100113.62
2023-04-15T19:11:50.785Z,100117.17
2023-04-15T19:16:53.558Z,100120.02
2023-04-15T19:21:56.357Z,100118.42
2023-04-15T19:26:59.190Z,100119.16
2023-04-15T19:32:02.201Z,100118.62
2023-04-15T19:37:04.964Z,100119.11
2023-04-15T19:42:07.790Z,100120.59
2023-04-15T19:47:11.515Z,100121.16
2023-04-15T19:52:14.328Z,100121.31
2023-04-15T19:57:17.120Z,100117.30
2023-04-15T20:02:20.014Z,100113.15
2023-04-15T20:07:22.869Z,100115.42
2023-04-15T20:12:50.271Z,100115.88
2023-04-15T20:17:49.790Z,100115.98
2023-04-15T20:22:53.166Z,100114.36
2023-04-15T20:27:57.554Z,100116.42
2023-04-15T20:33:01.368Z,100113.52
2023-04-15T20:38:04.678Z,100113.11
2023-04-15T20:43:07.917Z,100115.16
2023-04-15T20:48:11.003Z,100116.08
2023-04-15T20:53:13.751Z,100115.64
2023-04-15T20:58:16.538Z,100117.94
2023-04-15T21:03:19.552Z,100122.44
2023-04-15T21:08:29.171Z,100123.84
2023-04-15T21:13:32.025Z,100126.08
2023-04-15T21:18:34.861Z,100125.58
2023-04-15T21:23:37.620Z,100125.18
2023-04-15T21:28:40.746Z,100132.41
2023-04-15T21:33:43.471Z,100138.94
2023-04-15T21:38:46.233Z,100139.48
2023-04-15T21:43:49.060Z,100146.04
2023-04-15T21:48:53.346Z,100150.91
2023-04-15T21:53:56.177Z,100153.91
2023-04-15T21:58:59.024Z,100158.67
2023-04-15T22:04:02.028Z,100163.60
2023-04-15T22:09:04.911Z,100169.39
2023-04-15T22:14:07.788Z,100175.64
2023-04-15T22:19:10.810Z,100178.25
2023-04-15T22:24:32.237Z,100179.56
2023-04-15T22:29:36.502Z,100178.73
2023-04-15T22:34:39.370Z,100183.52
2023-04-15T22:39:42.169Z,100185.82
2023-04-15T22:44:45.583Z,100188.62
2023-04-15T22:49:48.289Z,100186.29
2023-04-15T22:54:51.191Z,100187.73
2023-04-15T22:59:54.298Z,100188.39
2023-04-15T23:04:57.846Z,100188.55
2023-04-15T23:10:01.322Z,100194.27
2023-04-15T23:15:04.523Z,100193.05
2023-04-15T23:20:08.165Z,100192.59
2023-04-15T23:25:11.570Z,100196.27
2023-04-15T23:30:15.034Z,100196.89
2023-04-15T23:35:17.800Z,100195.29
2023-04-15T23:40:20.816Z,100194.65
2023-04-15T23:45:23.673Z,100192.80
2023-04-15T23:50:28.480Z,100190.54
2023-04-15T23:55:31.466Z,100188.65
